Waltham, Minnesota
Current Conditions -  °F | °C
As of 5:16 PM on Wednesday 26 Nov 2014 (Local Time) from KAUM Reporting Station
Light Snow Light Snow  
Wind Chill: 19°   Ceiling: 5500
Heat Index: 25°   Visibility: 4mi
Dew Point: 21°   Wind: 5mph
Humidity: 86%   Direction: 350°N
Pressure: 30.21"   Gusts: NA
Location:  43.82°N, 92.88°W
Report Text: KAUM 262316Z AUTO 35004KT 4SM -SN SCT050 BKN055 M04/M06 A3021 RMK AO2
Loading
Personal Weather Stations






























Interactive Weather Map New forecast layout! Learn more

10-Day Weather Forecast

Advertisements
Track Severe Weather on mobile